KPIR/PIR METAR and TAF weather

Enter ICAO airport designator
Station Type Date Time Source
KPIR METAR 2021/09/25 11:53 UTC NOAA

KPIR 251153Z AUTO 00000KT 10SM CLR 06/01 A3001 RMK AO2 SLP164 70003 T00610011 10089 20050 56012


Station Type Date Time Source
KPIR Decoded METAR 2021/09/25 11:53 UTC NOAA

PIERRE REGIONAL AIRPORT, SD, United States (KPIR) 44-23N 100-17W 526M
Sep 25, 2021 - 07:53 AM EDT / 2021.09.25 1153 UTC
Wind: Calm:0
Visibility: 10 mile(s):0
Sky conditions: clear
Temperature: 43.0 F (6.1 C)
Dew Point: 34.0 F (1.1 C)
Relative Humidity: 70%
Pressure (altimeter): 30.01 in. Hg (1016 hPa)
Pressure tendency: 0.04 inches (1.2 hPa) lower than three hours ago
ob: KPIR 251153Z AUTO 00000KT 10SM CLR 06/01 A3001 RMK AO2 SLP164 70003 T00610011 10089 20050 56012
cycle: 12

Station Type Date Time Source
KPIR TAF 2021/09/25 12:22 UTC NOAA

TAF KPIR 251120Z 2512/2612 VRB04KT P6SM SKC

Example: see airport list